Terminal Aerodrome Forecast
Issued by NWS

Home | Current Version | Previous Version | Text Only | Print | Product List | Glossary On
Versions: 1 2 3 4 5 6 7 8 9 10 11 12
000
FTUS43 KDTX 282320
TAFYIP
TAF
KYIP 282320Z 2900/2924 04007KT P6SM SCT050 BKN100
     FM290200 01005KT P6SM FEW060
     FM291400 04009KT P6SM SCT120 BKN200
     FM291800 07010KT P6SM BKN050=

USA.gov is the U.S. government's official web portal to all federal, state and local government web resources and services.